Time;durP1;ratioP1;P1;durP2;ratioP2;P2;SDS_P1;SDS_P2;PMS_P1;PMS_P2;Temp;Humidity;BMP_temperature;BMP_pressure;BME280_temperature;BME280_humidity;BME280_pressure;Samples;Min_cycle;Max_cycle;Signal;HPM_P1;HPM_P2
2023/04/20 00:00:08;;;;;;;7.80;3.30;;;;;;;;;;5055480;28;20049;-76
2023/04/20 00:02:34;;;;;;;9.32;2.75;;;;;;;;;;5039771;28;20049;-76
2023/04/20 00:05:00;;;;;;;8.15;2.80;;;;;;;;;;5055029;28;20044;-76
2023/04/20 00:07:28;;;;;;;9.15;3.30;;;;;;;;;;5053999;28;20045;-76
2023/04/20 00:09:54;;;;;;;7.95;2.97;;;;;;;;;;5041654;28;20064;-76
2023/04/20 00:12:20;;;;;;;8.75;3.22;;;;;;;;;;5053295;28;20560;-77
2023/04/20 00:14:46;;;;;;;7.40;3.17;;;;;;;;;;5056664;28;20056;-77
2023/04/20 00:17:12;;;;;;;6.05;3.00;;;;;;;;;;5055444;28;20045;-77
2023/04/20 00:19:38;;;;;;;5.40;2.53;;;;;;;;;;5056134;28;20048;-77
2023/04/20 00:22:05;;;;;;;8.88;3.28;;;;;;;;;;5055318;28;20102;-77
2023/04/20 00:24:31;;;;;;;7.60;3.35;;;;;;;;;;5055952;28;20049;-77
2023/04/20 00:26:57;;;;;;;6.82;2.90;;;;;;;;;;5055928;28;20407;-77
2023/04/20 00:29:23;;;;;;;8.23;3.10;;;;;;;;;;5055701;28;20045;-77
2023/04/20 00:31:49;;;;;;;9.43;3.00;;;;;;;;;;5055215;28;20101;-77
2023/04/20 00:34:15;;;;;;;6.78;2.58;;;;;;;;;;5054997;28;20511;-79
2023/04/20 00:36:41;;;;;;;9.70;3.38;;;;;;;;;;5056557;28;20049;-78
2023/04/20 00:39:07;;;;;;;7.32;3.05;;;;;;;;;;5056989;28;20040;-77
2023/04/20 00:41:33;;;;;;;5.88;2.75;;;;;;;;;;5056829;28;20053;-77
2023/04/20 00:43:59;;;;;;;8.65;3.33;;;;;;;;;;5054553;28;20033;-77
2023/04/20 00:46:25;;;;;;;7.45;2.92;;;;;;;;;;5056244;28;20103;-77
2023/04/20 00:48:53;;;;;;;7.68;3.05;;;;;;;;;;5056353;28;20400;-77
2023/04/20 00:51:20;;;;;;;7.75;2.97;;;;;;;;;;5056167;28;20053;-77
2023/04/20 00:53:46;;;;;;;6.22;2.80;;;;;;;;;;5056030;28;20054;-77
2023/04/20 00:56:13;;;;;;;7.00;3.05;;;;;;;;;;5056316;28;20044;-78
2023/04/20 00:58:40;;;;;;;6.03;2.10;;;;;;;;;;5054211;28;20041;-77
2023/04/20 01:01:07;;;;;;;7.35;2.25;;;;;;;;;;5057662;28;20037;-77
2023/04/20 01:03:33;;;;;;;6.00;2.88;;;;;;;;;;5055119;28;20123;-78
2023/04/20 01:06:00;;;;;;;8.63;2.47;;;;;;;;;;5054167;28;20041;-77
2023/04/20 01:08:27;;;;;;;7.72;3.05;;;;;;;;;;5052119;28;20090;-77
2023/04/20 01:10:54;;;;;;;6.43;2.40;;;;;;;;;;5053725;28;20045;-77
2023/04/20 01:13:21;;;;;;;7.40;2.40;;;;;;;;;;5053224;28;20052;-77
2023/04/20 01:15:47;;;;;;;5.25;2.10;;;;;;;;;;5052024;28;20048;-77
2023/04/20 01:18:14;;;;;;;8.95;2.50;;;;;;;;;;5055265;28;20037;-77
2023/04/20 01:20:40;;;;;;;4.57;1.80;;;;;;;;;;5053095;28;20445;-77
2023/04/20 01:23:06;;;;;;;6.60;2.50;;;;;;;;;;5053991;28;20168;-78
2023/04/20 01:25:32;;;;;;;8.48;2.40;;;;;;;;;;5054525;28;20048;-76
2023/04/20 01:27:58;;;;;;;6.93;2.58;;;;;;;;;;5052883;28;20048;-77
2023/04/20 01:30:24;;;;;;;6.30;2.38;;;;;;;;;;5053144;28;20044;-77
2023/04/20 01:32:50;;;;;;;5.43;2.17;;;;;;;;;;5053632;28;20049;-77
2023/04/20 01:35:16;;;;;;;7.68;2.38;;;;;;;;;;5055356;28;20128;-77
2023/04/20 01:37:42;;;;;;;7.35;2.67;;;;;;;;;;5055094;28;20094;-77
2023/04/20 01:40:09;;;;;;;8.98;2.58;;;;;;;;;;5055217;28;20040;-77
2023/04/20 01:42:35;;;;;;;8.68;2.42;;;;;;;;;;5054201;28;20044;-78
2023/04/20 01:45:01;;;;;;;8.13;2.78;;;;;;;;;;5054586;28;20052;-77
2023/04/20 01:47:28;;;;;;;6.93;2.90;;;;;;;;;;5056419;28;20037;-77
2023/04/20 01:49:55;;;;;;;8.02;2.78;;;;;;;;;;5057882;28;20090;-77
2023/04/20 01:52:21;;;;;;;6.95;2.58;;;;;;;;;;5056776;28;20047;-77
2023/04/20 01:54:47;;;;;;;10.23;2.53;;;;;;;;;;5058585;28;20037;-77
2023/04/20 01:57:13;;;;;;;7.50;2.30;;;;;;;;;;5058175;28;20045;-78
2023/04/20 01:59:39;;;;;;;7.35;2.38;;;;;;;;;;5057717;28;20544;-77
2023/04/20 02:02:05;;;;;;;7.18;2.55;;;;;;;;;;5057809;28;20094;-77
2023/04/20 02:04:31;;;;;;;8.25;3.10;;;;;;;;;;5057992;28;20487;-77
2023/04/20 02:06:57;;;;;;;6.20;2.35;;;;;;;;;;5058916;28;20449;-77
2023/04/20 02:09:23;;;;;;;6.07;2.38;;;;;;;;;;5057084;28;20053;-77
2023/04/20 02:11:49;;;;;;;7.80;2.45;;;;;;;;;;5058851;28;20090;-77
2023/04/20 02:14:15;;;;;;;8.35;2.55;;;;;;;;;;5058218;28;20066;-76
2023/04/20 02:16:41;;;;;;;7.75;2.30;;;;;;;;;;5058317;28;20151;-77
2023/04/20 02:19:08;;;;;;;6.80;2.40;;;;;;;;;;5057418;28;20041;-76
2023/04/20 02:21:34;;;;;;;7.20;2.53;;;;;;;;;;5058256;28;20053;-77
2023/04/20 02:24:01;;;;;;;5.82;2.40;;;;;;;;;;5058512;28;20041;-77
2023/04/20 02:26:27;;;;;;;7.95;2.70;;;;;;;;;;5056285;28;20041;-77
2023/04/20 02:28:53;;;;;;;5.47;1.98;;;;;;;;;;5063581;28;20465;-76
2023/04/20 02:31:19;;;;;;;8.55;2.67;;;;;;;;;;5064963;28;20049;-76
2023/04/20 02:33:46;;;;;;;7.70;2.38;;;;;;;;;;5056672;28;20059;-76
2023/04/20 02:36:12;;;;;;;6.65;2.35;;;;;;;;;;5058371;28;20403;-76
2023/04/20 02:38:38;;;;;;;5.57;2.20;;;;;;;;;;5056516;28;20067;-75
2023/04/20 02:41:04;;;;;;;6.82;2.55;;;;;;;;;;5059542;28;20580;-77
2023/04/20 02:43:32;;;;;;;7.95;2.30;;;;;;;;;;5059805;28;20064;-78
2023/04/20 02:45:59;;;;;;;7.95;2.78;;;;;;;;;;5057933;28;20079;-76
2023/04/20 02:48:25;;;;;;;8.90;2.63;;;;;;;;;;5056691;28;20548;-77
2023/04/20 02:50:55;;;;;;;7.63;2.38;;;;;;;;;;5055482;28;20123;-77
2023/04/20 02:53:21;;;;;;;7.13;2.45;;;;;;;;;;5056896;28;20044;-77
2023/04/20 02:55:47;;;;;;;7.28;2.38;;;;;;;;;;5056802;28;20037;-78
2023/04/20 02:58:14;;;;;;;6.80;2.55;;;;;;;;;;5056152;28;20055;-78
2023/04/20 03:00:40;;;;;;;7.57;2.63;;;;;;;;;;5055745;28;20045;-78
2023/04/20 03:03:06;;;;;;;9.35;2.83;;;;;;;;;;5057991;28;20033;-79
2023/04/20 03:05:32;;;;;;;6.35;2.55;;;;;;;;;;5057106;28;20076;-77
2023/04/20 03:07:58;;;;;;;8.02;3.13;;;;;;;;;;5056112;28;20053;-77
2023/04/20 03:10:25;;;;;;;5.45;2.33;;;;;;;;;;5056222;28;20049;-77
2023/04/20 03:12:51;;;;;;;7.60;2.63;;;;;;;;;;5056607;28;20052;-77
2023/04/20 03:15:17;;;;;;;7.00;2.72;;;;;;;;;;5055799;28;20057;-77
2023/04/20 03:17:43;;;;;;;8.57;3.05;;;;;;;;;;5056068;28;20051;-78
2023/04/20 03:20:10;;;;;;;6.10;2.60;;;;;;;;;;5056656;28;20099;-78
2023/04/20 03:22:36;;;;;;;4.90;2.63;;;;;;;;;;5056877;28;20042;-77
2023/04/20 03:25:02;;;;;;;7.50;3.20;;;;;;;;;;5057304;28;20091;-77
2023/04/20 03:27:28;;;;;;;6.40;2.53;;;;;;;;;;5060215;28;20076;-78
2023/04/20 03:29:54;;;;;;;8.27;3.00;;;;;;;;;;5056552;28;20044;-78
2023/04/20 03:32:20;;;;;;;6.45;2.80;;;;;;;;;;5056965;28;20051;-77
2023/04/20 03:34:46;;;;;;;10.02;2.60;;;;;;;;;;5055604;28;20051;-79
2023/04/20 03:37:12;;;;;;;11.18;3.75;;;;;;;;;;5052934;28;20041;-77
2023/04/20 03:39:38;;;;;;;8.40;2.97;;;;;;;;;;5054290;28;20056;-78
2023/04/20 03:42:05;;;;;;;5.90;2.90;;;;;;;;;;5056630;28;20037;-77
2023/04/20 03:44:31;;;;;;;7.35;2.80;;;;;;;;;;5055649;28;20044;-77
2023/04/20 03:46:57;;;;;;;9.48;3.05;;;;;;;;;;5057182;28;20041;-77
2023/04/20 03:49:24;;;;;;;7.78;3.08;;;;;;;;;;5056960;28;20037;-77
2023/04/20 03:51:50;;;;;;;6.15;2.50;;;;;;;;;;5056117;28;20069;-77
2023/04/20 03:54:16;;;;;;;7.05;2.88;;;;;;;;;;5055644;28;20044;-77
2023/04/20 03:56:44;;;;;;;8.25;2.72;;;;;;;;;;5054258;28;20102;-77
2023/04/20 03:59:11;;;;;;;6.97;2.80;;;;;;;;;;5056691;28;20076;-77
2023/04/20 04:01:38;;;;;;;7.40;3.10;;;;;;;;;;5057101;28;20041;-77
2023/04/20 04:04:04;;;;;;;11.90;3.75;;;;;;;;;;5057669;28;20044;-77
2023/04/20 04:06:31;;;;;;;8.25;2.80;;;;;;;;;;5057963;28;20403;-76
2023/04/20 04:08:57;;;;;;;7.97;3.00;;;;;;;;;;5052199;28;20053;-77
2023/04/20 04:11:24;;;;;;;11.18;3.00;;;;;;;;;;5057278;28;20041;-77
2023/04/20 04:13:50;;;;;;;4.80;2.10;;;;;;;;;;5058688;28;20044;-77
2023/04/20 04:16:16;;;;;;;8.93;3.10;;;;;;;;;;5059025;28;20052;-77
2023/04/20 04:18:46;;;;;;;8.38;2.55;;;;;;;;;;5058612;28;20045;-77
2023/04/20 04:21:12;;;;;;;4.05;2.00;;;;;;;;;;5057503;28;20417;-77
2023/04/20 04:23:41;;;;;;;6.45;2.88;;;;;;;;;;5055994;28;20053;-77
2023/04/20 04:26:07;;;;;;;5.22;1.90;;;;;;;;;;5055422;28;20048;-77
2023/04/20 04:28:33;;;;;;;5.72;2.00;;;;;;;;;;5056252;28;20074;-76
2023/04/20 04:31:05;;;;;;;7.20;2.53;;;;;;;;;;5055488;28;20109;-77
2023/04/20 04:33:32;;;;;;;8.27;2.78;;;;;;;;;;5055663;28;20045;-76
2023/04/20 04:35:59;;;;;;;6.18;2.55;;;;;;;;;;5055134;28;20071;-77
2023/04/20 04:38:25;;;;;;;4.47;1.50;;;;;;;;;;5052256;28;20041;-78
2023/04/20 04:40:52;;;;;;;6.82;2.38;;;;;;;;;;5053485;28;20056;-76
2023/04/20 04:43:19;;;;;;;6.43;2.17;;;;;;;;;;5053477;28;20071;-77
2023/04/20 04:45:46;;;;;;;7.68;2.67;;;;;;;;;;5053093;28;20120;-77
2023/04/20 04:48:12;;;;;;;5.07;2.20;;;;;;;;;;5054700;28;20120;-77
2023/04/20 04:50:39;;;;;;;9.23;2.38;;;;;;;;;;5052137;28;20138;-76
2023/04/20 04:53:05;;;;;;;6.38;2.28;;;;;;;;;;5052921;28;20052;-78
2023/04/20 04:55:31;;;;;;;9.82;2.35;;;;;;;;;;5053823;28;20071;-77
2023/04/20 04:57:57;;;;;;;5.10;2.10;;;;;;;;;;5054543;28;20483;-77
2023/04/20 05:00:24;;;;;;;6.18;2.05;;;;;;;;;;5053089;28;20052;-77
2023/04/20 05:02:51;;;;;;;5.30;2.10;;;;;;;;;;5054429;28;20048;-77
2023/04/20 05:05:18;;;;;;;5.82;2.50;;;;;;;;;;5055139;28;20144;-76
2023/04/20 05:07:44;;;;;;;6.93;2.40;;;;;;;;;;5055496;28;20045;-77
2023/04/20 05:10:10;;;;;;;5.22;2.10;;;;;;;;;;5054234;28;20045;-77
2023/04/20 05:12:37;;;;;;;5.20;2.10;;;;;;;;;;5054511;28;20045;-77
2023/04/20 05:15:03;;;;;;;7.72;2.30;;;;;;;;;;5054484;28;20048;-77
2023/04/20 05:17:30;;;;;;;5.75;2.35;;;;;;;;;;5054945;28;20568;-76
2023/04/20 05:19:56;;;;;;;7.28;2.58;;;;;;;;;;5051629;28;20094;-77
2023/04/20 05:22:22;;;;;;;8.05;2.38;;;;;;;;;;5057349;28;20033;-77
2023/04/20 05:24:48;;;;;;;7.47;2.20;;;;;;;;;;5058210;28;20052;-77
2023/04/20 05:27:14;;;;;;;6.88;2.33;;;;;;;;;;5058205;28;20060;-77
2023/04/20 05:29:40;;;;;;;5.90;2.30;;;;;;;;;;5056548;28;20068;-77
2023/04/20 05:32:06;;;;;;;5.63;2.35;;;;;;;;;;5057135;28;20127;-77
2023/04/20 05:34:33;;;;;;;6.35;2.50;;;;;;;;;;5057620;28;20487;-77
2023/04/20 05:36:59;;;;;;;5.75;2.22;;;;;;;;;;5054456;28;20045;-77
2023/04/20 05:39:25;;;;;;;5.97;2.03;;;;;;;;;;5057529;28;20045;-77
2023/04/20 05:41:51;;;;;;;6.03;2.40;;;;;;;;;;5056784;28;20045;-77
2023/04/20 05:44:17;;;;;;;6.63;2.35;;;;;;;;;;5058434;28;20049;-76
2023/04/20 05:46:43;;;;;;;8.98;2.40;;;;;;;;;;5059290;28;20044;-77
2023/04/20 05:49:09;;;;;;;7.95;2.80;;;;;;;;;;5058646;28;20060;-77
2023/04/20 05:51:35;;;;;;;5.65;2.40;;;;;;;;;;5060142;28;20048;-76
2023/04/20 05:54:02;;;;;;;5.78;2.47;;;;;;;;;;5050078;28;20060;-77
2023/04/20 05:56:28;;;;;;;7.28;2.85;;;;;;;;;;5055136;28;20048;-77
2023/04/20 05:58:55;;;;;;;8.18;2.78;;;;;;;;;;5055647;28;20045;-77
2023/04/20 06:01:21;;;;;;;6.38;2.50;;;;;;;;;;5056322;28;20086;-78
2023/04/20 06:03:48;;;;;;;7.78;3.00;;;;;;;;;;5054646;28;20115;-76
2023/04/20 06:06:14;;;;;;;10.27;3.83;;;;;;;;;;5055441;28;20503;-76
2023/04/20 06:08:40;;;;;;;8.52;3.25;;;;;;;;;;5054928;28;20124;-77
2023/04/20 06:11:06;;;;;;;8.70;3.67;;;;;;;;;;5055008;28;20453;-78
2023/04/20 06:13:32;;;;;;;24.17;9.30;;;;;;;;;;5055926;28;20049;-77
2023/04/20 06:15:59;;;;;;;9.63;4.32;;;;;;;;;;5055894;28;20060;-78
2023/04/20 06:18:25;;;;;;;12.43;5.25;;;;;;;;;;5056046;28;20044;-77
2023/04/20 06:20:51;;;;;;;8.45;4.30;;;;;;;;;;5055672;28;20048;-78
2023/04/20 06:23:17;;;;;;;15.73;6.53;;;;;;;;;;5055191;28;20041;-77
2023/04/20 06:25:43;;;;;;;10.02;4.43;;;;;;;;;;5054087;28;20048;-77
2023/04/20 06:28:09;;;;;;;10.45;5.25;;;;;;;;;;5054032;28;20461;-76
2023/04/20 06:30:35;;;;;;;11.32;5.15;;;;;;;;;;5054647;28;20052;-76
2023/04/20 06:33:02;;;;;;;8.02;3.85;;;;;;;;;;5054268;28;20506;-77
2023/04/20 06:35:28;;;;;;;13.88;4.63;;;;;;;;;;5052850;28;20040;-77
2023/04/20 06:37:56;;;;;;;9.55;4.25;;;;;;;;;;5054096;28;20048;-77
2023/04/20 06:40:22;;;;;;;10.60;4.50;;;;;;;;;;5055061;28;20037;-77
2023/04/20 06:42:49;;;;;;;9.57;4.40;;;;;;;;;;5054157;28;20055;-77
2023/04/20 06:45:15;;;;;;;8.40;3.42;;;;;;;;;;5037022;28;20053;-77
2023/04/20 06:47:41;;;;;;;8.55;4.03;;;;;;;;;;5054673;28;20132;-77
2023/04/20 06:50:08;;;;;;;6.55;3.65;;;;;;;;;;5055175;28;20048;-77
2023/04/20 06:52:35;;;;;;;9.40;3.88;;;;;;;;;;5055309;28;20080;-78
2023/04/20 06:55:01;;;;;;;12.20;4.78;;;;;;;;;;5055075;28;20076;-77
2023/04/20 06:57:27;;;;;;;9.43;4.32;;;;;;;;;;5055157;28;20048;-77
2023/04/20 06:59:53;;;;;;;9.25;4.30;;;;;;;;;;5054549;28;20045;-77
2023/04/20 07:02:19;;;;;;;8.48;4.40;;;;;;;;;;5054794;28;20094;-77
2023/04/20 07:04:46;;;;;;;11.05;5.05;;;;;;;;;;5053408;28;20098;-78
2023/04/20 07:07:12;;;;;;;12.82;5.63;;;;;;;;;;5046844;28;20124;-76
2023/04/20 07:09:38;;;;;;;9.43;4.32;;;;;;;;;;5053762;28;20094;-77
2023/04/20 07:12:04;;;;;;;9.02;3.90;;;;;;;;;;5054787;28;20049;-78
2023/04/20 07:14:30;;;;;;;7.57;4.30;;;;;;;;;;5053366;28;20048;-77
2023/04/20 07:16:56;;;;;;;8.95;4.05;;;;;;;;;;5054658;28;20049;-77
2023/04/20 07:19:22;;;;;;;9.55;4.70;;;;;;;;;;5053725;28;20041;-77
2023/04/20 07:21:48;;;;;;;9.25;4.88;;;;;;;;;;5054366;28;20048;-77
2023/04/20 07:24:14;;;;;;;9.13;4.72;;;;;;;;;;5054581;28;20083;-78
2023/04/20 07:26:40;;;;;;;8.30;4.20;;;;;;;;;;5054135;28;20469;-77
2023/04/20 07:29:06;;;;;;;10.75;4.78;;;;;;;;;;5054807;28;20041;-78
2023/04/20 07:31:32;;;;;;;12.60;4.85;;;;;;;;;;5055396;28;20532;-77
2023/04/20 07:33:59;;;;;;;8.80;4.85;;;;;;;;;;5056643;28;20041;-78
2023/04/20 07:36:25;;;;;;;10.48;4.25;;;;;;;;;;5055065;28;20053;-77
2023/04/20 07:38:51;;;;;;;11.32;4.88;;;;;;;;;;5054823;28;20143;-78
2023/04/20 07:41:17;;;;;;;10.68;4.88;;;;;;;;;;5054410;28;20052;-78
2023/04/20 07:43:43;;;;;;;10.60;4.72;;;;;;;;;;5052372;28;20044;-77
2023/04/20 07:46:09;;;;;;;11.93;5.13;;;;;;;;;;5050840;28;20041;-77
2023/04/20 07:48:36;;;;;;;9.27;3.90;;;;;;;;;;5052387;28;20380;-77
2023/04/20 07:51:02;;;;;;;13.63;5.28;;;;;;;;;;5053847;28;20506;-77
2023/04/20 07:53:29;;;;;;;10.80;4.82;;;;;;;;;;5068995;28;20041;-78
2023/04/20 07:55:55;;;;;;;11.80;5.18;;;;;;;;;;5049394;28;20045;-77
2023/04/20 07:58:21;;;;;;;11.50;5.30;;;;;;;;;;5053331;28;20083;-77
2023/04/20 08:00:47;;;;;;;12.13;5.20;;;;;;;;;;5050863;28;20045;-76
2023/04/20 08:03:13;;;;;;;11.65;5.40;;;;;;;;;;5052808;28;20114;-77
2023/04/20 08:05:39;;;;;;;11.27;5.25;;;;;;;;;;5047879;28;20045;-78
2023/04/20 08:08:06;;;;;;;10.82;5.03;;;;;;;;;;5051682;28;20103;-77
2023/04/20 08:10:32;;;;;;;10.60;5.22;;;;;;;;;;5053273;28;20045;-77
2023/04/20 08:12:58;;;;;;;12.95;6.00;;;;;;;;;;5055605;28;20043;-78
2023/04/20 08:15:24;;;;;;;11.00;5.85;;;;;;;;;;5053542;28;20052;-77
2023/04/20 08:17:51;;;;;;;13.25;5.57;;;;;;;;;;5054289;28;20128;-77
2023/04/20 08:20:18;;;;;;;12.70;5.80;;;;;;;;;;5052736;28;20097;-77
2023/04/20 08:22:44;;;;;;;13.60;6.13;;;;;;;;;;5051865;28;20055;-77
2023/04/20 08:25:10;;;;;;;15.57;6.95;;;;;;;;;;5052883;28;20037;-77
2023/04/20 08:27:36;;;;;;;18.90;9.05;;;;;;;;;;5051505;28;20051;-77
2023/04/20 08:30:03;;;;;;;13.75;6.57;;;;;;;;;;5052805;28;20041;-77
2023/04/20 08:32:29;;;;;;;10.80;6.10;;;;;;;;;;5053199;28;20041;-79
2023/04/20 08:34:55;;;;;;;15.15;7.10;;;;;;;;;;5052510;28;20067;-78
2023/04/20 08:37:22;;;;;;;12.35;6.70;;;;;;;;;;5052237;28;20443;-77
2023/04/20 08:39:48;;;;;;;11.23;6.22;;;;;;;;;;5053792;28;20055;-76
2023/04/20 08:42:15;;;;;;;11.45;6.40;;;;;;;;;;5052506;28;20048;-77
2023/04/20 08:44:41;;;;;;;12.57;7.18;;;;;;;;;;5052766;28;20091;-78
2023/04/20 08:47:09;;;;;;;14.00;8.35;;;;;;;;;;5049338;28;20041;-78
2023/04/20 08:49:35;;;;;;;10.68;6.40;;;;;;;;;;5051285;28;20052;-78
2023/04/20 08:52:01;;;;;;;12.45;6.82;;;;;;;;;;5052858;28;20091;-77
2023/04/20 08:54:27;;;;;;;14.57;6.75;;;;;;;;;;5052223;28;20120;-77
2023/04/20 08:56:53;;;;;;;11.95;6.15;;;;;;;;;;5053178;28;20076;-77
2023/04/20 08:59:19;;;;;;;12.45;6.90;;;;;;;;;;5053063;28;20080;-77
2023/04/20 09:01:45;;;;;;;14.95;6.95;;;;;;;;;;5053525;28;20045;-77
2023/04/20 09:04:15;;;;;;;11.73;7.13;;;;;;;;;;5054565;28;20052;-77
2023/04/20 09:06:51;;;;;;;12.32;6.63;;;;;;;;;;5053739;28;20041;-76
2023/04/20 09:09:18;;;;;;;11.93;6.63;;;;;;;;;;5052852;28;20056;-78
2023/04/20 09:11:45;;;;;;;12.65;6.47;;;;;;;;;;5051404;28;20051;-76
2023/04/20 09:14:12;;;;;;;12.15;8.07;;;;;;;;;;5051771;28;20194;-77
2023/04/20 09:17:01;;;;;;;14.63;7.03;;;;;;;;;;5054008;28;20037;-77
2023/04/20 09:19:30;;;;;;;11.30;6.45;;;;;;;;;;5050275;28;20052;-77
2023/04/20 09:21:58;;;;;;;12.85;7.45;;;;;;;;;;5065816;28;20051;-78
2023/04/20 09:24:30;;;;;;;11.45;7.53;;;;;;;;;;5051665;28;20056;-77
2023/04/20 09:26:56;;;;;;;13.13;7.10;;;;;;;;;;5053064;28;20076;-77
2023/04/20 09:29:24;;;;;;;13.60;7.72;;;;;;;;;;5054664;28;20130;-77
2023/04/20 09:31:51;;;;;;;12.40;6.82;;;;;;;;;;5053750;28;20112;-77
2023/04/20 09:34:18;;;;;;;13.48;8.98;;;;;;;;;;5053241;28;20045;-77
2023/04/20 09:36:45;;;;;;;16.25;8.10;;;;;;;;;;5052693;28;20040;-78
2023/04/20 09:39:19;;;;;;;19.65;11.07;;;;;;;;;;5051945;28;20037;-78
2023/04/20 09:41:45;;;;;;;14.10;8.82;;;;;;;;;;5052631;28;20499;-76
2023/04/20 09:44:12;;;;;;;14.27;8.00;;;;;;;;;;5052083;28;20041;-76
2023/04/20 09:46:39;;;;;;;14.55;8.38;;;;;;;;;;5051488;28;20085;-76
2023/04/20 09:49:12;;;;;;;14.10;9.77;;;;;;;;;;5052831;28;20073;-76
2023/04/20 09:51:45;;;;;;;15.88;10.40;;;;;;;;;;5052560;28;20049;-77
2023/04/20 09:54:12;;;;;;;13.63;8.48;;;;;;;;;;5054370;28;20045;-76
2023/04/20 09:56:38;;;;;;;14.48;10.15;;;;;;;;;;5060043;28;20071;-76
2023/04/20 09:59:05;;;;;;;15.23;8.77;;;;;;;;;;5062157;28;20041;-78
2023/04/20 10:01:33;;;;;;;13.82;8.90;;;;;;;;;;5053062;28;20048;-77
2023/04/20 10:03:59;;;;;;;13.60;8.98;;;;;;;;;;5053321;28;20049;-77
2023/04/20 10:06:26;;;;;;;13.48;9.02;;;;;;;;;;5062318;28;20045;-81
2023/04/20 10:08:53;;;;;;;13.63;8.10;;;;;;;;;;5057549;28;20068;-76
2023/04/20 10:11:25;;;;;;;11.30;7.10;;;;;;;;;;5055564;28;20048;-78
2023/04/20 10:13:51;;;;;;;15.20;8.95;;;;;;;;;;5060126;28;20105;-78
2023/04/20 10:16:18;;;;;;;14.65;8.50;;;;;;;;;;5056008;28;20098;-76
2023/04/20 10:18:55;;;;;;;14.18;8.15;;;;;;;;;;5056953;28;20048;-77
2023/04/20 10:21:21;;;;;;;13.93;9.52;;;;;;;;;;5056321;28;20044;-77
2023/04/20 10:23:50;;;;;;;15.50;9.15;;;;;;;;;;5057039;28;20045;-77
2023/04/20 10:26:16;;;;;;;11.85;9.20;;;;;;;;;;5056492;28;20072;-77
2023/04/20 10:28:46;;;;;;;13.40;9.98;;;;;;;;;;5056978;28;20523;-77
2023/04/20 10:31:13;;;;;;;16.15;10.25;;;;;;;;;;5057480;28;20807;-78
2023/04/20 10:33:54;;;;;;;13.65;10.65;;;;;;;;;;5058337;28;20067;-78
2023/04/20 10:36:32;;;;;;;13.15;9.75;;;;;;;;;;5062169;28;20044;-78
2023/04/20 10:39:00;;;;;;;13.93;10.85;;;;;;;;;;5061548;28;20095;-78
2023/04/20 10:41:26;;;;;;;15.90;11.18;;;;;;;;;;5063574;28;20041;-77
2023/04/20 10:43:52;;;;;;;15.00;10.77;;;;;;;;;;5053065;28;20095;-78
2023/04/20 10:46:23;;;;;;;16.55;10.98;;;;;;;;;;5063020;28;20116;-79
2023/04/20 10:48:56;;;;;;;15.93;11.10;;;;;;;;;;5062987;28;20457;-79
2023/04/20 10:51:22;;;;;;;14.95;11.00;;;;;;;;;;5062787;28;20279;-80
2023/04/20 10:54:07;;;;;;;13.93;11.43;;;;;;;;;;5060328;28;20041;-78
2023/04/20 10:56:39;;;;;;;15.07;11.70;;;;;;;;;;5063367;28;20099;-78
2023/04/20 10:59:07;;;;;;;14.23;10.13;;;;;;;;;;5062287;28;20939;-79
2023/04/20 11:01:33;;;;;;;17.15;12.05;;;;;;;;;;5057617;28;20133;-77
2023/04/20 11:04:00;;;;;;;21.05;13.77;;;;;;;;;;5055637;28;20088;-78
2023/04/20 11:06:27;;;;;;;15.70;10.82;;;;;;;;;;5056641;28;20050;-76
2023/04/20 11:08:53;;;;;;;17.20;12.50;;;;;;;;;;5053613;28;20053;-78
2023/04/20 11:11:19;;;;;;;19.15;13.50;;;;;;;;;;5054507;28;20107;-77
2023/04/20 11:13:46;;;;;;;18.52;13.68;;;;;;;;;;5054443;28;20433;-78
2023/04/20 11:16:15;;;;;;;14.25;11.18;;;;;;;;;;5060311;28;20048;-78
2023/04/20 11:18:52;;;;;;;18.17;14.00;;;;;;;;;;5054697;28;20057;-77
2023/04/20 11:21:18;;;;;;;17.75;12.73;;;;;;;;;;5053831;28;20041;-77
2023/04/20 11:23:44;;;;;;;15.50;11.65;;;;;;;;;;5055305;28;20067;-79
2023/04/20 11:26:10;;;;;;;15.40;11.60;;;;;;;;;;5059485;28;20036;-76
2023/04/20 11:28:37;;;;;;;15.18;11.18;;;;;;;;;;5052875;28;20045;-77
2023/04/20 11:31:03;;;;;;;14.52;10.38;;;;;;;;;;5055843;28;20399;-76
2023/04/20 11:33:30;;;;;;;14.30;10.43;;;;;;;;;;5055088;28;20041;-79
2023/04/20 11:35:59;;;;;;;15.18;10.30;;;;;;;;;;5059835;28;20098;-81
2023/04/20 11:38:30;;;;;;;14.23;10.48;;;;;;;;;;5057859;28;20115;-77
2023/04/20 11:40:57;;;;;;;16.70;10.73;;;;;;;;;;5055589;28;20037;-78
2023/04/20 11:43:23;;;;;;;20.27;11.80;;;;;;;;;;5054773;28;20334;-77
2023/04/20 11:45:50;;;;;;;15.38;9.40;;;;;;;;;;5059126;28;20045;-78
2023/04/20 11:48:17;;;;;;;20.17;11.23;;;;;;;;;;5054493;28;20079;-76
2023/04/20 11:50:43;;;;;;;19.38;11.30;;;;;;;;;;5055918;28;20120;-78
2023/04/20 11:53:13;;;;;;;19.15;11.18;;;;;;;;;;5054903;28;20041;-77
2023/04/20 11:55:40;;;;;;;22.13;11.95;;;;;;;;;;5054311;28;20055;-77
2023/04/20 11:58:06;;;;;;;16.33;10.13;;;;;;;;;;5045361;28;20050;-78
2023/04/20 12:00:33;;;;;;;14.40;9.43;;;;;;;;;;5054008;28;20415;-76
2023/04/20 12:03:00;;;;;;;13.45;8.35;;;;;;;;;;5051686;28;20057;-78
2023/04/20 12:05:27;;;;;;;14.38;10.93;;;;;;;;;;5054359;28;20160;-77
2023/04/20 12:07:53;;;;;;;16.08;11.13;;;;;;;;;;5052864;28;20120;-76
2023/04/20 12:10:19;;;;;;;17.92;11.63;;;;;;;;;;5059747;28;20045;-78
2023/04/20 12:12:45;;;;;;;16.75;11.82;;;;;;;;;;5056798;28;20053;-76
2023/04/20 12:15:12;;;;;;;15.35;10.30;;;;;;;;;;5053327;28;20071;-77
2023/04/20 12:17:38;;;;;;;13.32;8.82;;;;;;;;;;5054375;28;20052;-76
2023/04/20 12:20:07;;;;;;;16.08;9.05;;;;;;;;;;5053870;28;20045;-76
2023/04/20 12:22:33;;;;;;;15.73;10.73;;;;;;;;;;5056003;28;20043;-75
2023/04/20 12:24:59;;;;;;;15.93;10.45;;;;;;;;;;5058272;28;20041;-76
2023/04/20 12:27:26;;;;;;;16.38;11.63;;;;;;;;;;5056088;28;20036;-77
2023/04/20 12:29:52;;;;;;;13.13;9.80;;;;;;;;;;5055766;28;20045;-77
2023/04/20 12:32:18;;;;;;;17.58;10.98;;;;;;;;;;5052185;28;20080;-77
2023/04/20 12:34:44;;;;;;;16.83;12.38;;;;;;;;;;5055124;28;20041;-76
2023/04/20 12:37:11;;;;;;;16.08;11.13;;;;;;;;;;5053236;28;20118;-78
2023/04/20 12:39:37;;;;;;;13.90;10.77;;;;;;;;;;5053874;28;20080;-78
2023/04/20 12:42:03;;;;;;;13.40;9.73;;;;;;;;;;5055877;28;20045;-76
2023/04/20 12:44:29;;;;;;;12.50;9.18;;;;;;;;;;5052204;28;20041;-75
2023/04/20 12:46:55;;;;;;;12.10;8.77;;;;;;;;;;5051600;28;20055;-75
2023/04/20 12:49:21;;;;;;;14.25;10.18;;;;;;;;;;5053030;28;20068;-76
2023/04/20 12:51:47;;;;;;;13.18;9.93;;;;;;;;;;5053646;28;20056;-77
2023/04/20 12:54:13;;;;;;;17.00;11.35;;;;;;;;;;5053348;28;20041;-76
2023/04/20 12:56:39;;;;;;;12.63;8.75;;;;;;;;;;5053940;28;20045;-77
2023/04/20 12:59:05;;;;;;;14.13;9.05;;;;;;;;;;5053949;28;20045;-77
2023/04/20 13:01:31;;;;;;;14.00;8.32;;;;;;;;;;5054191;28;20053;-77
2023/04/20 13:03:57;;;;;;;15.50;9.60;;;;;;;;;;5052024;28;20049;-77
2023/04/20 13:06:23;;;;;;;15.68;9.07;;;;;;;;;;5052270;28;20090;-78
2023/04/20 13:08:50;;;;;;;13.50;9.60;;;;;;;;;;5052433;28;20052;-78
2023/04/20 13:11:16;;;;;;;14.25;9.63;;;;;;;;;;5052238;28;20073;-78
2023/04/20 13:13:43;;;;;;;15.60;10.35;;;;;;;;;;5032794;28;20102;-80
2023/04/20 13:16:09;;;;;;;13.85;8.88;;;;;;;;;;5052468;28;20037;-76
2023/04/20 13:18:35;;;;;;;19.25;10.95;;;;;;;;;;5052598;28;20068;-79
2023/04/20 13:21:01;;;;;;;12.32;9.50;;;;;;;;;;5054173;28;20503;-77
2023/04/20 13:23:27;;;;;;;14.35;8.98;;;;;;;;;;5051313;28;20041;-76
2023/04/20 13:25:55;;;;;;;12.57;8.02;;;;;;;;;;5049438;28;20049;-77
2023/04/20 13:28:21;;;;;;;18.75;10.93;;;;;;;;;;5051250;28;20522;-76
2023/04/20 13:30:47;;;;;;;13.43;9.48;;;;;;;;;;5051358;28;20491;-78
2023/04/20 13:33:13;;;;;;;17.60;10.95;;;;;;;;;;5048754;28;20167;-77
2023/04/20 13:35:39;;;;;;;13.77;9.23;;;;;;;;;;5052786;28;20052;-77
2023/04/20 13:38:06;;;;;;;14.63;8.98;;;;;;;;;;5053367;28;20213;-76
2023/04/20 13:40:32;;;;;;;9.63;7.68;;;;;;;;;;5052111;28;20041;-76
2023/04/20 13:42:58;;;;;;;13.32;8.07;;;;;;;;;;5054048;28;20052;-77
2023/04/20 13:45:24;;;;;;;12.15;7.93;;;;;;;;;;5055769;28;20117;-77
2023/04/20 13:47:50;;;;;;;12.05;8.27;;;;;;;;;;5057241;28;20091;-76
2023/04/20 13:50:16;;;;;;;13.52;9.30;;;;;;;;;;5056753;28;20550;-76
2023/04/20 13:52:42;;;;;;;12.13;8.90;;;;;;;;;;5056297;28;20051;-77
2023/04/20 13:55:09;;;;;;;15.82;11.20;;;;;;;;;;5056439;28;20067;-77
2023/04/20 13:57:35;;;;;;;15.18;10.85;;;;;;;;;;5058457;28;20398;-77
2023/04/20 14:00:01;;;;;;;11.68;8.20;;;;;;;;;;5060547;28;20049;-76
2023/04/20 14:02:28;;;;;;;10.88;7.75;;;;;;;;;;5049426;28;20103;-76
2023/04/20 14:04:55;;;;;;;12.32;8.80;;;;;;;;;;5055877;28;20045;-76
2023/04/20 14:07:21;;;;;;;11.63;8.35;;;;;;;;;;5053415;28;20048;-75
2023/04/20 14:09:47;;;;;;;11.55;7.32;;;;;;;;;;5051860;28;20056;-76
2023/04/20 14:12:14;;;;;;;12.38;7.35;;;;;;;;;;5049950;28;20543;-78
2023/04/20 14:14:40;;;;;;;11.70;7.93;;;;;;;;;;5054842;28;20045;-76
2023/04/20 14:17:06;;;;;;;10.88;7.65;;;;;;;;;;5056414;28;20041;-76
2023/04/20 14:19:32;;;;;;;13.60;8.00;;;;;;;;;;5055945;28;20053;-77
2023/04/20 14:21:58;;;;;;;11.38;7.63;;;;;;;;;;5053443;28;20036;-76
2023/04/20 14:24:24;;;;;;;12.55;7.40;;;;;;;;;;5053078;28;20045;-76
2023/04/20 14:26:51;;;;;;;9.90;6.95;;;;;;;;;;5054080;28;20514;-76
2023/04/20 14:29:17;;;;;;;13.18;7.35;;;;;;;;;;5042805;28;20049;-76